Time;durP1;ratioP1;P1;durP2;ratioP2;P2;SDS_P1;SDS_P2;PMS_P1;PMS_P2;Temp;Humidity;BMP_temperature;BMP_pressure;BME280_temperature;BME280_humidity;BME280_pressure;Samples;Min_cycle;Max_cycle;Signal;HPM_P1;HPM_P2
2024/04/05 00:00:19;;;;;;;9.83;4.30;;;11.60;99.90;;;;;;5113671;28;20444;-62
2024/04/05 00:02:46;;;;;;;16.47;4.00;;;11.60;99.90;;;;;;5113206;28;20465;-61
2024/04/05 00:05:12;;;;;;;12.93;3.47;;;11.60;99.90;;;;;;5113538;28;20443;-62
2024/04/05 00:07:40;;;;;;;14.07;3.70;;;11.50;99.90;;;;;;5113680;28;20523;-62
2024/04/05 00:10:07;;;;;;;12.23;4.60;;;11.50;99.90;;;;;;5113623;28;20438;-61
2024/04/05 00:12:36;;;;;;;14.90;4.17;;;11.40;99.90;;;;;;5113180;28;20469;-62
2024/04/05 00:15:03;;;;;;;12.27;2.83;;;11.40;99.90;;;;;;5114109;28;20440;-62
2024/04/05 00:17:30;;;;;;;16.80;4.73;;;11.30;99.90;;;;;;5113346;28;20456;-63
2024/04/05 00:19:56;;;;;;;11.43;3.20;;;11.30;99.90;;;;;;5113585;28;20894;-62
2024/04/05 00:22:24;;;;;;;10.87;3.67;;;11.20;99.90;;;;;;5113516;28;20464;-61
2024/04/05 00:24:52;;;;;;;13.27;3.63;;;11.20;99.90;;;;;;5113710;28;20536;-61
2024/04/05 00:27:19;;;;;;;12.90;3.37;;;11.10;99.90;;;;;;5113805;28;20441;-60
2024/04/05 00:29:46;;;;;;;15.43;4.33;;;11.10;99.90;;;;;;5116676;28;20437;-61
2024/04/05 00:32:13;;;;;;;16.30;3.70;;;11.00;99.90;;;;;;5117298;28;20464;-60
2024/04/05 00:34:39;;;;;;;11.03;3.23;;;11.00;99.90;;;;;;5116983;28;20434;-61
2024/04/05 00:37:05;;;;;;;20.80;3.93;;;11.00;99.90;;;;;;5117363;28;20483;-61
2024/04/05 00:39:32;;;;;;;14.10;3.90;;;10.90;99.90;;;;;;5117545;28;20235;-61
2024/04/05 00:41:58;;;;;;;14.27;3.80;;;10.90;99.90;;;;;;5117329;28;20453;-61
2024/04/05 00:44:25;;;;;;;17.13;4.10;;;10.90;99.90;;;;;;5117012;28;20821;-61
2024/04/05 00:46:52;;;;;;;10.37;4.07;;;10.80;99.90;;;;;;5117318;28;20927;-61
2024/04/05 00:49:19;;;;;;;13.97;4.37;;;10.80;99.90;;;;;;5116843;28;20532;-62
2024/04/05 00:51:45;;;;;;;10.10;4.20;;;10.70;99.90;;;;;;5117378;28;20497;-62
2024/04/05 00:54:12;;;;;;;13.50;3.63;;;10.70;99.90;;;;;;5116971;28;20532;-62
2024/04/05 00:56:38;;;;;;;9.37;3.53;;;10.70;99.90;;;;;;5116552;28;20473;-62
2024/04/05 00:59:05;;;;;;;19.97;4.50;;;10.70;99.90;;;;;;5116866;28;20549;-61
2024/04/05 01:01:31;;;;;;;10.43;3.87;;;10.60;99.90;;;;;;5116836;28;20468;-61
2024/04/05 01:03:59;;;;;;;15.50;4.10;;;10.60;99.90;;;;;;5116410;28;20448;-59
2024/04/05 01:06:25;;;;;;;13.00;3.50;;;10.50;99.90;;;;;;5116979;28;20433;-61
2024/04/05 01:08:52;;;;;;;9.83;3.73;;;10.50;99.90;;;;;;5117106;28;20450;-61
2024/04/05 01:11:18;;;;;;;14.03;4.23;;;10.50;99.90;;;;;;5116462;28;20203;-62
2024/04/05 01:13:47;;;;;;;14.83;4.30;;;10.40;99.90;;;;;;5116719;28;20475;-61
2024/04/05 01:16:13;;;;;;;12.40;3.83;;;10.40;99.90;;;;;;5117437;28;20343;-61
2024/04/05 01:18:40;;;;;;;10.70;3.77;;;10.30;99.90;;;;;;5117167;28;20934;-63
2024/04/05 01:21:08;;;;;;;12.33;3.10;;;10.30;99.90;;;;;;5116444;28;20199;-61
2024/04/05 01:23:41;;;;;;;10.90;3.37;;;10.30;99.90;;;;;;5116478;28;20488;-61
2024/04/05 01:26:07;;;;;;;6.63;3.40;;;10.20;99.90;;;;;;5116879;28;20413;-61
2024/04/05 01:28:34;;;;;;;15.40;4.13;;;10.20;99.90;;;;;;5116572;28;20814;-61
2024/04/05 01:31:00;;;;;;;20.80;3.80;;;10.20;99.90;;;;;;5116571;28;20448;-61
2024/04/05 01:33:26;;;;;;;8.20;4.00;;;10.20;99.90;;;;;;5116600;28;20457;-63
2024/04/05 01:35:52;;;;;;;16.90;4.47;;;10.20;99.90;;;;;;5116580;28;20472;-61
2024/04/05 01:38:19;;;;;;;10.63;3.57;;;10.10;99.90;;;;;;5116565;28;20556;-62
2024/04/05 01:40:47;;;;;;;14.33;4.57;;;10.10;99.90;;;;;;5116200;28;20203;-62
2024/04/05 01:43:13;;;;;;;15.67;4.00;;;10.10;99.90;;;;;;5116976;28;20461;-62
2024/04/05 01:45:39;;;;;;;12.90;3.73;;;10.10;99.90;;;;;;5116436;28;20452;-61
2024/04/05 01:48:07;;;;;;;7.30;3.60;;;10.10;99.90;;;;;;5116622;28;20437;-62
2024/04/05 01:50:33;;;;;;;13.20;4.37;;;10.10;99.90;;;;;;5116574;28;20211;-62
2024/04/05 01:52:59;;;;;;;10.40;3.80;;;10.10;99.90;;;;;;5116145;28;20540;-61
2024/04/05 01:55:25;;;;;;;9.70;3.33;;;10.10;99.90;;;;;;5116114;28;20200;-62
2024/04/05 01:57:53;;;;;;;7.60;3.10;;;10.10;99.90;;;;;;5116195;28;20449;-62
2024/04/05 02:00:19;;;;;;;13.87;3.97;;;10.10;99.90;;;;;;5116170;28;20203;-62
2024/04/05 02:02:47;;;;;;;13.60;3.57;;;10.10;99.90;;;;;;5116512;28;20461;-62
2024/04/05 02:05:13;;;;;;;8.23;3.67;;;10.10;99.90;;;;;;5115742;28;20441;-61
2024/04/05 02:07:40;;;;;;;10.20;3.03;;;10.10;99.90;;;;;;5115596;28;20494;-62
2024/04/05 02:10:06;;;;;;;14.53;3.33;;;10.10;99.90;;;;;;5115516;28;20583;-62
2024/04/05 02:12:33;;;;;;;16.73;3.07;;;10.10;99.90;;;;;;5115605;28;20465;-62
2024/04/05 02:15:00;;;;;;;12.03;3.83;;;10.10;99.90;;;;;;5115700;28;20437;-62
2024/04/05 02:17:27;;;;;;;12.90;3.07;;;10.10;99.90;;;;;;5115261;28;20472;-62
2024/04/05 02:19:53;;;;;;;16.53;3.77;;;10.10;99.90;;;;;;5115355;28;20437;-63
2024/04/05 02:22:19;;;;;;;17.97;3.93;;;10.00;99.90;;;;;;5115104;28;20460;-62
2024/04/05 02:24:45;;;;;;;17.23;2.90;;;10.00;99.90;;;;;;5115109;28;20200;-60
2024/04/05 02:27:12;;;;;;;9.93;3.20;;;10.00;99.90;;;;;;5115401;28;20440;-61
2024/04/05 02:29:38;;;;;;;8.03;3.13;;;10.10;99.90;;;;;;5115329;28;20451;-61
2024/04/05 02:32:07;;;;;;;10.70;3.20;;;10.10;99.90;;;;;;5115192;28;20902;-61
2024/04/05 02:34:32;;;;;;;14.27;2.97;;;10.10;99.90;;;;;;5115209;28;20814;-62
2024/04/05 02:36:59;;;;;;;13.43;4.17;;;10.10;99.90;;;;;;5115186;28;20491;-62
2024/04/05 02:39:25;;;;;;;18.70;3.53;;;10.10;99.90;;;;;;5115235;28;20207;-62
2024/04/05 02:41:52;;;;;;;16.13;3.50;;;10.10;99.90;;;;;;5115252;28;20461;-61
2024/04/05 02:44:20;;;;;;;15.87;3.57;;;10.10;99.90;;;;;;5115226;28;20203;-62
2024/04/05 02:46:47;;;;;;;9.17;2.77;;;10.20;99.90;;;;;;5115353;28;20437;-62
2024/04/05 02:49:14;;;;;;;13.27;3.20;;;10.20;99.90;;;;;;5115309;28;20445;-62
2024/04/05 02:51:41;;;;;;;9.20;3.20;;;10.30;99.90;;;;;;5114171;28;20462;-60
2024/04/05 02:54:07;;;;;;;11.90;2.90;;;10.30;99.90;;;;;;5115093;28;20460;-62
2024/04/05 02:56:33;;;;;;;13.63;3.47;;;10.40;99.90;;;;;;5115354;28;20975;-63
2024/04/05 02:58:59;;;;;;;11.80;3.13;;;10.40;99.90;;;;;;5114804;28;20547;-62
2024/04/05 03:01:26;;;;;;;11.00;2.90;;;10.50;99.90;;;;;;5114729;28;20494;-63
2024/04/05 03:03:52;;;;;;;12.27;3.27;;;10.40;99.90;;;;;;5114623;28;20437;-62
2024/04/05 03:06:20;;;;;;;7.40;2.57;;;10.40;99.90;;;;;;5114486;28;20833;-62
2024/04/05 03:08:46;;;;;;;8.33;3.37;;;10.40;99.90;;;;;;5114541;28;20445;-62
2024/04/05 03:11:13;;;;;;;10.87;3.13;;;10.40;99.90;;;;;;5114437;28;20807;-62
2024/04/05 03:13:41;;;;;;;11.20;3.20;;;10.30;99.90;;;;;;5114096;28;20511;-62
2024/04/05 03:16:08;;;;;;;7.77;2.63;;;10.40;99.90;;;;;;5114161;28;20856;-62
2024/04/05 03:18:34;;;;;;;12.30;3.00;;;10.40;99.90;;;;;;5114184;28;20437;-61
2024/04/05 03:21:00;;;;;;;16.07;3.70;;;10.40;99.90;;;;;;5114005;28;20524;-63
2024/04/05 03:23:27;;;;;;;6.60;2.60;;;10.50;99.90;;;;;;5113965;28;20239;-62
2024/04/05 03:25:55;;;;;;;9.90;3.20;;;10.50;99.90;;;;;;5114082;28;20441;-61
2024/04/05 03:28:20;;;;;;;9.87;3.50;;;10.50;99.90;;;;;;5114109;28;20793;-61
2024/04/05 03:30:47;;;;;;;9.53;2.70;;;10.60;99.90;;;;;;5114133;28;20502;-61
2024/04/05 03:33:13;;;;;;;13.23;2.93;;;10.60;99.90;;;;;;5115070;28;20227;-61
2024/04/05 03:35:40;;;;;;;12.57;3.57;;;10.70;99.90;;;;;;5113693;28;20437;-62
2024/04/05 03:38:07;;;;;;;9.17;2.40;;;10.70;99.90;;;;;;5113961;28;20215;-62
2024/04/05 03:40:38;;;;;;;7.03;2.57;;;10.80;99.90;;;;;;5113690;28;20456;-62
2024/04/05 03:43:05;;;;;;;11.43;2.90;;;10.80;99.90;;;;;;5114518;28;20849;-62
2024/04/05 03:45:31;;;;;;;13.53;3.80;;;10.90;99.90;;;;;;5113826;28;20445;-61
2024/04/05 03:47:57;;;;;;;14.23;2.90;;;10.90;99.90;;;;;;5113994;28;20434;-61
2024/04/05 03:50:24;;;;;;;17.67;2.83;;;10.90;99.90;;;;;;5113522;28;20441;-61
2024/04/05 03:52:51;;;;;;;11.40;2.87;;;11.00;99.90;;;;;;5114103;28;20219;-61
2024/04/05 03:55:17;;;;;;;10.47;3.47;;;11.00;99.90;;;;;;5113355;28;20448;-61
2024/04/05 03:57:50;;;;;;;7.77;3.40;;;11.00;99.90;;;;;;5113470;28;20469;-60
2024/04/05 04:00:17;;;;;;;11.80;2.93;;;11.00;99.90;;;;;;5113491;28;20980;-60
2024/04/05 04:02:43;;;;;;;13.13;2.87;;;11.10;99.90;;;;;;5113636;28;20460;-60
2024/04/05 04:05:10;;;;;;;11.87;3.17;;;11.10;99.90;;;;;;5113140;28;20494;-62
2024/04/05 04:07:36;;;;;;;10.37;3.30;;;11.10;99.90;;;;;;5113961;28;20195;-60
2024/04/05 04:13:28;;;;;;;14.50;3.65;;;11.10;99.90;;;;;;5108976;27;1242451;-64
2024/04/05 04:15:53;;;;;;;12.63;3.20;;;11.20;99.90;;;;;;5152867;27;20198;-62
2024/04/05 04:18:20;;;;;;;11.33;3.50;;;11.20;99.90;;;;;;5153694;27;20454;-61
2024/04/05 04:20:46;;;;;;;11.43;3.20;;;11.20;99.90;;;;;;5153761;27;20202;-63
2024/04/05 04:23:13;;;;;;;15.70;3.87;;;11.20;99.90;;;;;;5153106;27;20459;-63
2024/04/05 04:25:39;;;;;;;13.30;3.23;;;11.20;99.90;;;;;;5153228;27;20305;-62
2024/04/05 04:28:07;;;;;;;11.73;3.60;;;11.20;99.90;;;;;;5152923;27;20816;-64
2024/04/05 04:30:34;;;;;;;8.60;2.77;;;11.20;99.90;;;;;;5152814;27;20443;-61
2024/04/05 04:33:01;;;;;;;8.93;2.80;;;11.20;99.90;;;;;;5152153;27;20476;-63
2024/04/05 04:35:27;;;;;;;15.80;3.27;;;11.20;99.90;;;;;;5152307;27;20439;-63
2024/04/05 04:37:54;;;;;;;9.67;2.90;;;11.20;99.90;;;;;;5152023;27;20439;-62
2024/04/05 04:40:20;;;;;;;8.53;3.37;;;11.20;99.90;;;;;;5152177;27;20284;-62
2024/04/05 04:42:47;;;;;;;13.07;3.70;;;11.20;99.90;;;;;;5151591;27;20991;-63
2024/04/05 04:45:12;;;;;;;12.37;3.20;;;11.20;99.90;;;;;;5151858;27;20442;-63
2024/04/05 04:47:41;;;;;;;5.23;2.70;;;11.10;99.90;;;;;;5152006;27;20448;-63
2024/04/05 04:50:08;;;;;;;8.73;3.20;;;11.10;99.90;;;;;;5152011;27;20206;-64
2024/04/05 04:52:36;;;;;;;7.30;2.67;;;11.10;99.90;;;;;;5151758;27;20474;-62
2024/04/05 04:55:02;;;;;;;11.70;3.20;;;11.10;99.90;;;;;;5151547;27;20492;-62
2024/04/05 04:57:29;;;;;;;15.00;4.00;;;11.10;99.90;;;;;;5151680;27;20441;-64
2024/04/05 04:59:55;;;;;;;8.50;3.20;;;11.10;99.90;;;;;;5151337;27;20443;-62
2024/04/05 05:02:21;;;;;;;9.13;3.10;;;11.10;99.90;;;;;;5152016;27;21032;-62
2024/04/05 05:04:48;;;;;;;11.40;3.30;;;11.10;99.90;;;;;;5152042;27;20202;-62
2024/04/05 05:07:15;;;;;;;11.17;3.10;;;11.00;99.90;;;;;;5151846;27;20747;-62
2024/04/05 05:09:41;;;;;;;9.77;3.10;;;11.00;99.90;;;;;;5151611;27;20955;-62
2024/04/05 05:12:08;;;;;;;16.77;3.80;;;11.00;99.90;;;;;;5151125;27;20479;-63
2024/04/05 05:14:34;;;;;;;7.77;2.80;;;11.10;99.90;;;;;;5151228;27;20202;-62
2024/04/05 05:17:01;;;;;;;13.10;2.87;;;11.10;99.90;;;;;;5151499;27;20427;-62
2024/04/05 05:19:26;;;;;;;10.30;3.03;;;11.10;99.90;;;;;;5151514;27;20205;-63
2024/04/05 05:21:54;;;;;;;8.90;2.70;;;11.10;99.90;;;;;;5151395;27;20550;-61
2024/04/05 05:24:20;;;;;;;7.70;2.90;;;11.20;99.90;;;;;;5140329;27;20210;-63
2024/04/05 05:26:47;;;;;;;9.60;3.00;;;11.20;99.90;;;;;;5137526;27;20436;-62
2024/04/05 05:29:13;;;;;;;12.57;3.57;;;11.20;99.90;;;;;;5137759;27;20550;-62
2024/04/05 05:31:39;;;;;;;15.47;3.53;;;11.20;99.90;;;;;;5139224;27;20471;-63
2024/04/05 05:34:06;;;;;;;12.60;3.37;;;11.30;99.90;;;;;;5138770;27;20209;-64
2024/04/05 05:36:33;;;;;;;9.37;2.40;;;11.30;99.90;;;;;;5137817;27;20930;-62
2024/04/05 05:39:00;;;;;;;8.80;3.50;;;11.40;99.90;;;;;;5138591;27;20468;-62
2024/04/05 05:41:27;;;;;;;5.70;2.40;;;11.40;99.90;;;;;;5138181;27;20461;-62
2024/04/05 05:43:53;;;;;;;11.17;3.30;;;11.40;99.90;;;;;;5137679;27;20468;-62
2024/04/05 05:46:20;;;;;;;10.03;2.97;;;11.50;99.90;;;;;;5139402;27;20451;-62
2024/04/05 05:48:47;;;;;;;10.43;2.80;;;11.50;99.90;;;;;;5141101;27;20199;-63
2024/04/05 05:51:14;;;;;;;7.40;2.70;;;11.60;99.90;;;;;;5140697;27;20460;-63
2024/04/05 05:53:40;;;;;;;14.67;4.10;;;11.60;99.90;;;;;;5139264;27;20488;-63
2024/04/05 05:56:08;;;;;;;8.73;3.47;;;11.70;99.90;;;;;;5138115;27;20437;-62
2024/04/05 05:58:34;;;;;;;11.73;3.17;;;11.70;99.90;;;;;;5137676;27;20442;-63
2024/04/05 06:01:06;;;;;;;8.90;2.40;;;11.80;99.90;;;;;;5139423;27;20510;-63
2024/04/05 06:03:32;;;;;;;9.47;2.97;;;11.80;99.90;;;;;;5139779;27;20477;-63
2024/04/05 06:06:00;;;;;;;13.07;3.77;;;11.90;99.90;;;;;;5138228;27;20785;-63
2024/04/05 06:08:26;;;;;;;8.90;3.27;;;12.00;99.90;;;;;;5138632;27;20445;-62
2024/04/05 06:10:56;;;;;;;8.10;2.60;;;12.00;99.90;;;;;;5137936;27;20513;-61
2024/04/05 06:13:23;;;;;;;11.70;3.23;;;12.10;99.90;;;;;;5138186;27;20244;-63
2024/04/05 06:15:55;;;;;;;10.73;2.80;;;12.20;99.90;;;;;;5139671;27;20470;-62
2024/04/05 06:18:20;;;;;;;5.13;2.40;;;12.30;99.90;;;;;;5139813;27;20941;-63
2024/04/05 06:20:52;;;;;;;9.27;3.43;;;12.30;99.90;;;;;;5142386;27;20443;-63
2024/04/05 06:23:19;;;;;;;5.77;2.20;;;12.40;99.90;;;;;;5142587;27;20215;-63
2024/04/05 06:25:52;;;;;;;15.70;3.27;;;12.40;99.90;;;;;;5144044;27;20439;-63
2024/04/05 06:28:18;;;;;;;15.07;3.63;;;12.50;99.90;;;;;;5143253;27;20461;-62
2024/04/05 06:30:46;;;;;;;10.27;3.17;;;12.60;99.90;;;;;;5141257;27;20436;-63
2024/04/05 06:33:12;;;;;;;8.53;2.90;;;12.70;99.90;;;;;;5140800;27;20483;-63
2024/04/05 06:35:39;;;;;;;12.87;3.50;;;12.80;99.90;;;;;;5137534;27;20432;-63
2024/04/05 06:38:05;;;;;;;12.10;3.10;;;12.90;99.90;;;;;;5139181;27;20225;-63
2024/04/05 06:40:31;;;;;;;7.80;3.00;;;13.00;99.90;;;;;;5139349;27;20942;-63
2024/04/05 06:42:57;;;;;;;10.77;3.20;;;13.10;99.90;;;;;;5139237;27;20230;-63
2024/04/05 06:45:24;;;;;;;6.40;2.40;;;13.20;99.90;;;;;;5140932;27;20436;-62
2024/04/05 06:47:51;;;;;;;8.77;2.57;;;13.30;99.90;;;;;;5139931;27;20209;-62
2024/04/05 06:50:18;;;;;;;7.80;2.43;;;13.40;99.90;;;;;;5137986;27;20440;-62
2024/04/05 06:52:44;;;;;;;6.07;2.67;;;13.60;99.90;;;;;;5138623;27;20487;-62
2024/04/05 06:55:11;;;;;;;7.60;2.73;;;13.70;99.90;;;;;;5136734;27;20444;-63
2024/04/05 06:57:38;;;;;;;9.10;3.80;;;13.80;99.90;;;;;;5136379;27;20497;-63
2024/04/05 07:00:10;;;;;;;5.53;2.33;;;13.90;99.90;;;;;;5137686;27;20791;-63
2024/04/05 07:02:36;;;;;;;8.27;2.70;;;14.00;99.90;;;;;;5138969;27;20457;-62
2024/04/05 07:05:05;;;;;;;8.50;3.13;;;14.00;99.90;;;;;;5139505;27;20539;-62
2024/04/05 07:07:31;;;;;;;8.33;3.03;;;14.10;99.90;;;;;;5137529;27;20440;-63
2024/04/05 07:09:58;;;;;;;6.57;2.07;;;14.10;99.90;;;;;;5138551;27;20803;-63
2024/04/05 07:12:24;;;;;;;8.93;2.80;;;14.20;99.90;;;;;;5140374;27;20322;-63
2024/04/05 07:14:50;;;;;;;8.10;2.80;;;14.20;99.90;;;;;;5140850;27;20456;-64
2024/04/05 07:17:16;;;;;;;10.33;2.90;;;14.30;99.90;;;;;;5139802;27;20202;-63
2024/04/05 07:19:43;;;;;;;11.07;3.90;;;14.30;99.90;;;;;;5139721;27;20436;-63
2024/04/05 07:22:15;;;;;;;5.60;2.60;;;14.30;99.90;;;;;;5138665;27;20221;-65
2024/04/05 07:24:43;;;;;;;6.03;2.53;;;14.30;99.90;;;;;;5140590;27;20428;-63
2024/04/05 07:27:08;;;;;;;7.17;2.70;;;14.40;99.90;;;;;;5140573;27;20807;-63
2024/04/05 07:29:36;;;;;;;6.03;2.77;;;14.30;99.90;;;;;;5139242;27;20441;-63
2024/04/05 07:32:04;;;;;;;7.80;2.60;;;14.30;99.90;;;;;;5139548;27;20234;-62
2024/04/05 07:34:31;;;;;;;6.40;3.03;;;14.30;99.90;;;;;;5139610;27;20479;-63
2024/04/05 07:36:57;;;;;;;10.10;3.07;;;14.30;99.90;;;;;;5140090;27;20455;-63
2024/04/05 07:39:25;;;;;;;4.13;2.53;;;14.40;99.90;;;;;;5137950;27;20440;-64
2024/04/05 07:41:51;;;;;;;5.80;3.00;;;14.50;99.90;;;;;;5138642;27;20461;-64
2024/04/05 07:44:19;;;;;;;8.80;3.00;;;14.70;99.90;;;;;;5136667;27;20444;-64
2024/04/05 07:46:45;;;;;;;7.73;2.50;;;14.80;99.90;;;;;;5135604;27;20234;-64
2024/04/05 07:49:12;;;;;;;8.07;3.20;;;14.80;99.90;;;;;;5136163;27;20460;-63
2024/04/05 07:51:37;;;;;;;7.00;3.03;;;14.80;99.90;;;;;;5140008;27;20225;-63
2024/04/05 07:54:04;;;;;;;5.73;2.50;;;14.80;99.90;;;;;;5142609;27;20539;-64
2024/04/05 07:56:31;;;;;;;7.23;2.53;;;14.70;99.90;;;;;;5141842;27;20215;-64
2024/04/05 07:58:58;;;;;;;5.97;2.53;;;14.50;99.90;;;;;;5138080;27;20509;-63
2024/04/05 08:01:24;;;;;;;6.63;2.30;;;14.40;99.90;;;;;;5136775;27;20443;-64
2024/04/05 08:03:51;;;;;;;5.00;3.00;;;14.40;99.90;;;;;;5136471;27;20472;-64
2024/04/05 08:06:16;;;;;;;8.70;3.17;;;14.50;99.90;;;;;;5136358;27;20436;-64
2024/04/05 08:08:45;;;;;;;8.40;2.90;;;14.60;99.90;;;;;;5135910;27;20432;-63
2024/04/05 08:11:11;;;;;;;7.63;2.60;;;14.60;99.90;;;;;;5135595;28;20578;-62
2024/04/05 08:13:39;;;;;;;9.10;2.50;;;14.60;99.90;;;;;;5135051;28;20472;-64
2024/04/05 08:16:06;;;;;;;13.03;4.70;;;14.70;99.90;;;;;;5135259;28;20203;-63
2024/04/05 08:18:33;;;;;;;8.20;3.10;;;14.80;99.90;;;;;;5135620;28;20445;-62
2024/04/05 08:21:03;;;;;;;5.23;2.67;;;15.00;99.90;;;;;;5135589;28;20436;-63
2024/04/05 08:23:29;;;;;;;8.10;2.70;;;15.20;99.90;;;;;;5136047;28;20456;-63
2024/04/05 08:25:55;;;;;;;7.90;2.47;;;15.40;99.90;;;;;;5135422;28;20448;-63
2024/04/05 08:28:22;;;;;;;6.70;2.33;;;15.70;99.90;;;;;;5135149;28;20436;-63
2024/04/05 08:30:51;;;;;;;11.20;2.90;;;15.90;99.90;;;;;;5135167;28;20224;-64
2024/04/05 08:33:18;;;;;;;10.60;3.00;;;16.10;99.90;;;;;;5135084;28;20472;-63
2024/04/05 08:35:50;;;;;;;6.13;2.97;;;16.20;99.90;;;;;;5135013;28;20440;-64
2024/04/05 08:38:17;;;;;;;6.97;2.87;;;16.30;99.90;;;;;;5135103;28;20454;-63
2024/04/05 08:40:43;;;;;;;9.20;2.80;;;16.30;99.90;;;;;;5135488;28;20432;-64
2024/04/05 08:43:10;;;;;;;6.83;2.30;;;16.30;99.90;;;;;;5135727;28;20842;-63
2024/04/05 08:45:36;;;;;;;8.13;2.83;;;16.30;99.90;;;;;;5139814;28;20539;-63
2024/04/05 08:48:06;;;;;;;3.53;2.00;;;16.30;99.90;;;;;;5138202;28;20460;-63
2024/04/05 08:50:34;;;;;;;7.80;1.90;;;16.30;99.90;;;;;;5139767;28;20535;-63
2024/04/05 08:53:00;;;;;;;6.30;2.80;;;16.40;99.90;;;;;;5135089;28;20472;-63
2024/04/05 08:55:26;;;;;;;10.90;2.67;;;16.40;99.90;;;;;;5134098;28;20440;-63
2024/04/05 08:57:55;;;;;;;5.00;2.00;;;16.60;99.90;;;;;;5135119;27;20440;-62
2024/04/05 09:00:23;;;;;;;4.53;2.00;;;16.80;99.90;;;;;;5139231;27;20199;-63
2024/04/05 09:02:52;;;;;;;6.10;2.10;;;16.90;99.90;;;;;;5141359;27;20456;-62
2024/04/05 09:05:19;;;;;;;5.57;2.17;;;17.10;99.90;;;;;;5144460;27;20432;-63
2024/04/05 09:07:47;;;;;;;3.80;2.00;;;17.40;99.90;;;;;;5146814;27;20493;-63
2024/04/05 09:10:14;;;;;;;4.20;2.27;;;17.60;99.90;;;;;;5145997;27;20446;-63
2024/04/05 09:12:49;;;;;;;7.80;2.40;;;17.70;99.90;;;;;;5146625;27;20482;-63
2024/04/05 09:15:25;;;;;;;4.60;1.87;;;17.80;99.90;;;;;;5146688;27;20461;-64
2024/04/05 09:17:53;;;;;;;4.20;2.20;;;17.90;99.90;;;;;;5146643;27;20427;-63
2024/04/05 09:20:24;;;;;;;7.67;2.60;;;18.10;99.90;;;;;;5147340;27;20444;-64
2024/04/05 09:22:57;;;;;;;4.00;1.83;;;18.20;99.90;;;;;;5144451;27;20452;-63
2024/04/05 09:25:23;;;;;;;10.53;2.67;;;18.30;99.90;;;;;;5144248;27;20423;-62
2024/04/05 09:27:51;;;;;;;8.00;2.67;;;18.30;99.90;;;;;;5145412;27;20937;-65
2024/04/05 09:30:18;;;;;;;5.60;2.60;;;18.20;99.90;;;;;;5141922;27;20563;-64
2024/04/05 09:32:48;;;;;;;9.57;2.83;;;18.10;99.90;;;;;;5139566;27;20480;-64
2024/04/05 09:35:18;;;;;;;7.30;2.83;;;18.10;99.90;;;;;;5138941;27;20436;-64
2024/04/05 09:37:48;;;;;;;3.93;1.93;;;18.10;99.90;;;;;;5139853;27;20447;-63
2024/04/05 09:40:16;;;;;;;4.83;1.70;;;18.10;99.90;;;;;;5138563;27;20437;-63
2024/04/05 09:42:44;;;;;;;5.27;3.00;;;18.10;99.90;;;;;;5139650;27;20457;-64
2024/04/05 09:45:12;;;;;;;7.33;2.23;;;18.00;99.90;;;;;;5139824;27;20441;-64
2024/04/05 09:47:42;;;;;;;5.43;2.73;;;18.10;99.90;;;;;;5139253;27;20441;-64
2024/04/05 09:50:08;;;;;;;6.60;2.03;;;18.10;99.90;;;;;;5139293;27;20790;-64
2024/04/05 09:52:40;;;;;;;3.70;1.63;;;18.20;99.90;;;;;;5138752;27;20479;-64
2024/04/05 09:55:09;;;;;;;5.20;1.97;;;18.20;99.90;;;;;;5139158;27;20504;-63
2024/04/05 09:57:37;;;;;;;4.37;2.03;;;18.20;99.90;;;;;;5141003;27;20467;-65
2024/04/05 10:00:13;;;;;;;5.40;1.90;;;18.20;99.90;;;;;;5139153;27;20535;-63
2024/04/05 10:02:41;;;;;;;7.03;2.00;;;18.30;99.90;;;;;;5139104;27;20463;-63
2024/04/05 10:05:07;;;;;;;5.00;1.90;;;18.30;99.90;;;;;;5139311;27;20444;-63
2024/04/05 10:07:34;;;;;;;6.03;2.37;;;18.30;99.90;;;;;;5138754;27;20432;-64
2024/04/05 10:10:09;;;;;;;10.73;2.13;;;18.40;99.90;;;;;;5139193;27;20226;-64
2024/04/05 10:12:36;;;;;;;5.80;1.90;;;18.30;99.90;;;;;;5137853;27;20525;-64
2024/04/05 10:15:03;;;;;;;4.67;1.90;;;18.20;99.90;;;;;;5138127;27;20504;-63
2024/04/05 10:17:30;;;;;;;4.00;2.03;;;18.30;99.90;;;;;;5138215;27;20436;-63
2024/04/05 10:20:04;;;;;;;5.47;1.80;;;18.40;99.90;;;;;;5139367;27;20436;-63
2024/04/05 10:22:32;;;;;;;3.90;1.77;;;18.40;99.90;;;;;;5139797;27;20459;-63
2024/04/05 10:24:57;;;;;;;3.40;1.93;;;18.30;99.90;;;;;;5140705;27;20444;-62
2024/04/05 10:27:27;;;;;;;4.27;2.10;;;18.30;99.90;;;;;;5139403;27;20452;-64
2024/04/05 10:29:58;;;;;;;4.53;1.70;;;18.30;99.90;;;;;;5138336;27;20202;-62
2024/04/05 10:32:25;;;;;;;3.30;1.50;;;18.20;99.90;;;;;;5138482;27;20464;-63
2024/04/05 10:34:51;;;;;;;5.50;1.67;;;18.10;99.90;;;;;;5138625;27;20528;-63
2024/04/05 10:37:18;;;;;;;3.57;1.70;;;18.00;99.90;;;;;;5138185;27;20874;-64
2024/04/05 10:39:43;;;;;;;2.33;1.70;;;17.90;99.90;;;;;;5138692;27;20243;-62
2024/04/05 10:42:10;;;;;;;2.80;1.60;;;17.80;99.90;;;;;;5141741;27;20547;-64
2024/04/05 10:44:38;;;;;;;5.50;2.27;;;17.80;99.90;;;;;;5143234;27;20195;-64
2024/04/05 10:47:09;;;;;;;4.00;1.77;;;17.80;99.90;;;;;;5141447;27;20794;-64
2024/04/05 10:49:34;;;;;;;2.70;1.67;;;17.80;99.90;;;;;;5139984;27;20454;-64
2024/04/05 10:52:02;;;;;;;4.40;2.00;;;17.90;99.90;;;;;;5139244;27;20464;-63
2024/04/05 10:54:28;;;;;;;3.60;1.80;;;18.00;99.90;;;;;;5138701;27;20691;-64
2024/04/05 10:56:55;;;;;;;6.43;1.63;;;18.10;99.90;;;;;;5137881;27;20440;-62
2024/04/05 10:59:21;;;;;;;3.80;2.00;;;18.30;99.90;;;;;;5138727;27;20282;-63
2024/04/05 11:01:49;;;;;;;3.47;1.90;;;18.40;99.90;;;;;;5138090;27;20960;-64
2024/04/05 11:04:15;;;;;;;6.17;2.07;;;18.50;99.90;;;;;;5138067;27;20210;-62
2024/04/05 11:06:42;;;;;;;4.63;1.63;;;18.60;99.90;;;;;;5137736;27;20438;-63
2024/04/05 11:09:09;;;;;;;5.60;1.80;;;18.70;99.90;;;;;;5136555;27;20203;-63
2024/04/05 11:11:36;;;;;;;5.17;2.23;;;18.70;99.90;;;;;;5137444;27;20456;-63
2024/04/05 11:14:03;;;;;;;2.57;1.40;;;18.70;99.90;;;;;;5137340;27;20463;-63
2024/04/05 11:16:30;;;;;;;3.87;1.77;;;18.60;99.90;;;;;;5142890;27;20512;-65
2024/04/05 11:18:57;;;;;;;4.97;1.60;;;18.70;99.90;;;;;;5141814;27;20451;-64
2024/04/05 11:21:24;;;;;;;4.33;1.90;;;18.70;99.90;;;;;;5139381;27;20458;-64
2024/04/05 11:23:51;;;;;;;3.63;2.33;;;18.70;99.90;;;;;;5139106;27;20433;-64
2024/04/05 11:26:23;;;;;;;3.40;1.50;;;18.70;99.90;;;;;;5140191;27;20440;-63
2024/04/05 11:28:49;;;;;;;2.50;1.30;;;18.90;99.90;;;;;;5138914;27;20444;-63
2024/04/05 11:31:16;;;;;;;3.03;1.63;;;18.90;99.80;;;;;;5138155;27;20436;-63
2024/04/05 11:33:42;;;;;;;3.47;1.83;;;18.90;99.30;;;;;;5137186;27;20219;-64
2024/04/05 11:36:10;;;;;;;3.20;1.97;;;19.00;99.20;;;;;;5136729;27;20511;-63
2024/04/05 11:38:36;;;;;;;3.33;1.67;;;19.00;99.00;;;;;;5137437;27;20539;-63
2024/04/05 11:41:03;;;;;;;3.30;1.70;;;19.00;98.90;;;;;;5136202;27;20487;-64
2024/04/05 11:43:29;;;;;;;3.10;1.63;;;19.10;98.70;;;;;;5135700;27;20225;-64
2024/04/05 11:45:56;;;;;;;4.17;1.60;;;19.10;98.40;;;;;;5136469;27;20444;-63
2024/04/05 11:48:23;;;;;;;3.30;1.63;;;19.20;98.20;;;;;;5136344;27;20443;-64
2024/04/05 11:50:50;;;;;;;5.20;2.90;;;19.20;97.80;;;;;;5136706;27;20440;-62
2024/04/05 11:53:17;;;;;;;3.70;2.10;;;19.20;97.70;;;;;;5136871;27;20484;-64
2024/04/05 11:55:44;;;;;;;1.90;1.60;;;19.10;97.60;;;;;;5138180;27;20447;-63
2024/04/05 11:58:10;;;;;;;5.30;2.20;;;19.10;97.50;;;;;;5137199;27;20989;-63
2024/04/05 12:00:37;;;;;;;4.83;2.03;;;19.00;97.50;;;;;;5135951;27;20436;-63
2024/04/05 12:03:03;;;;;;;5.43;1.80;;;18.90;97.90;;;;;;5136300;27;20225;-63
2024/04/05 12:05:29;;;;;;;6.00;1.80;;;18.80;98.20;;;;;;5135891;27;20531;-64
2024/04/05 12:07:55;;;;;;;4.13;1.60;;;18.70;98.70;;;;;;5136415;27;20450;-63
2024/04/05 12:10:23;;;;;;;3.70;2.00;;;18.70;99.00;;;;;;5137506;27;20440;-64
2024/04/05 12:12:49;;;;;;;4.07;1.73;;;18.70;99.20;;;;;;5137310;28;20695;-63
2024/04/05 12:15:17;;;;;;;4.90;1.70;;;18.80;99.20;;;;;;5137257;28;20450;-64
2024/04/05 12:17:43;;;;;;;3.43;1.97;;;18.70;99.10;;;;;;5136975;28;20311;-63
2024/04/05 12:20:11;;;;;;;5.53;2.17;;;18.70;99.50;;;;;;5135883;28;20460;-63
2024/04/05 12:22:37;;;;;;;2.80;1.70;;;18.70;99.60;;;;;;5136329;28;20271;-63
2024/04/05 12:25:05;;;;;;;4.93;1.50;;;18.70;99.60;;;;;;5135443;28;20442;-64
2024/04/05 12:27:32;;;;;;;6.27;1.67;;;18.70;99.70;;;;;;5136244;28;20440;-62
2024/04/05 12:29:59;;;;;;;3.07;1.67;;;18.60;99.80;;;;;;5135563;28;20428;-64
2024/04/05 12:32:25;;;;;;;4.80;1.77;;;18.60;99.90;;;;;;5134906;27;20813;-63
2024/04/05 12:34:52;;;;;;;2.10;1.50;;;18.50;99.90;;;;;;5138192;27;20551;-63
2024/04/05 12:37:21;;;;;;;2.70;1.70;;;18.60;99.90;;;;;;5139654;27;20279;-63
2024/04/05 12:39:49;;;;;;;5.33;2.07;;;18.70;99.90;;;;;;5139808;27;20523;-64
2024/04/05 12:42:15;;;;;;;4.93;1.87;;;18.90;99.90;;;;;;5139357;27;20883;-63
2024/04/05 12:44:44;;;;;;;4.63;1.87;;;19.10;99.60;;;;;;5138930;27;20431;-62